sensor_id;sensor_type;location;lat;lon;timestamp;P1;durP1;ratioP1;P2;durP2;ratioP2
60032;SDS011;45905;50.570;10.428;2023-05-10T00:01:28;2.87;;;1.80;;
60032;SDS011;45905;50.570;10.428;2023-05-10T00:03:55;2.13;;;1.70;;
60032;SDS011;45905;50.570;10.428;2023-05-10T00:06:23;2.00;;;1.70;;
60032;SDS011;45905;50.570;10.428;2023-05-10T00:08:50;2.20;;;1.73;;
60032;SDS011;45905;50.570;10.428;2023-05-10T00:11:17;4.73;;;1.93;;
60032;SDS011;45905;50.570;10.428;2023-05-10T00:13:48;2.00;;;1.30;;
60032;SDS011;45905;50.570;10.428;2023-05-10T00:16:15;3.30;;;2.30;;
60032;SDS011;45905;50.570;10.428;2023-05-10T00:18:43;1.40;;;1.30;;
60032;SDS011;45905;50.570;10.428;2023-05-10T00:21:10;3.00;;;2.20;;
60032;SDS011;45905;50.570;10.428;2023-05-10T00:23:38;5.00;;;1.70;;
60032;SDS011;45905;50.570;10.428;2023-05-10T00:26:05;2.17;;;1.70;;
60032;SDS011;45905;50.570;10.428;2023-05-10T00:28:33;3.83;;;2.03;;
60032;SDS011;45905;50.570;10.428;2023-05-10T00:31:01;2.70;;;2.00;;
60032;SDS011;45905;50.570;10.428;2023-05-10T00:33:28;2.17;;;1.97;;
60032;SDS011;45905;50.570;10.428;2023-05-10T00:35:56;3.13;;;2.00;;
60032;SDS011;45905;50.570;10.428;2023-05-10T00:38:24;5.70;;;2.90;;
60032;SDS011;45905;50.570;10.428;2023-05-10T00:40:51;2.70;;;2.30;;
60032;SDS011;45905;50.570;10.428;2023-05-10T00:43:25;1.80;;;1.70;;
60032;SDS011;45905;50.570;10.428;2023-05-10T00:45:52;2.50;;;1.57;;
60032;SDS011;45905;50.570;10.428;2023-05-10T00:48:20;5.03;;;3.27;;
60032;SDS011;45905;50.570;10.428;2023-05-10T00:50:48;3.10;;;2.03;;
60032;SDS011;45905;50.570;10.428;2023-05-10T00:53:17;3.40;;;2.43;;
60032;SDS011;45905;50.570;10.428;2023-05-10T00:55:45;3.43;;;2.17;;
60032;SDS011;45905;50.570;10.428;2023-05-10T00:58:12;2.93;;;2.60;;
60032;SDS011;45905;50.570;10.428;2023-05-10T01:00:41;2.27;;;1.97;;
60032;SDS011;45905;50.570;10.428;2023-05-10T01:03:10;4.13;;;2.27;;
60032;SDS011;45905;50.570;10.428;2023-05-10T01:05:38;3.77;;;2.20;;
60032;SDS011;45905;50.570;10.428;2023-05-10T01:08:05;3.70;;;1.80;;
60032;SDS011;45905;50.570;10.428;2023-05-10T01:10:34;2.07;;;1.97;;
60032;SDS011;45905;50.570;10.428;2023-05-10T01:13:02;2.13;;;1.70;;
60032;SDS011;45905;50.570;10.428;2023-05-10T01:15:30;4.23;;;3.30;;
60032;SDS011;45905;50.570;10.428;2023-05-10T01:17:58;2.60;;;2.07;;
60032;SDS011;45905;50.570;10.428;2023-05-10T01:20:27;3.60;;;2.33;;
60032;SDS011;45905;50.570;10.428;2023-05-10T01:26:00;3.20;;;2.40;;
60032;SDS011;45905;50.570;10.428;2023-05-10T01:31:59;6.17;;;2.50;;
60032;SDS011;45905;50.570;10.428;2023-05-10T01:35:09;2.60;;;1.83;;
60032;SDS011;45905;50.570;10.428;2023-05-10T01:37:54;4.17;;;2.13;;
60032;SDS011;45905;50.570;10.428;2023-05-10T01:43:59;2.27;;;1.90;;
60032;SDS011;45905;50.570;10.428;2023-05-10T01:46:49;2.70;;;2.50;;
60032;SDS011;45905;50.570;10.428;2023-05-10T01:49:29;3.37;;;2.20;;
60032;SDS011;45905;50.570;10.428;2023-05-10T01:52:08;2.60;;;1.83;;
60032;SDS011;45905;50.570;10.428;2023-05-10T01:54:41;2.60;;;2.30;;
60032;SDS011;45905;50.570;10.428;2023-05-10T01:57:34;3.67;;;2.17;;
60032;SDS011;45905;50.570;10.428;2023-05-10T02:00:06;2.03;;;1.50;;
60032;SDS011;45905;50.570;10.428;2023-05-10T02:02:44;7.00;;;2.63;;
60032;SDS011;45905;50.570;10.428;2023-05-10T02:05:14;4.30;;;2.30;;
60032;SDS011;45905;50.570;10.428;2023-05-10T02:07:44;4.60;;;2.17;;
60032;SDS011;45905;50.570;10.428;2023-05-10T02:10:12;4.47;;;2.73;;
60032;SDS011;45905;50.570;10.428;2023-05-10T02:12:43;3.80;;;2.27;;
60032;SDS011;45905;50.570;10.428;2023-05-10T02:15:15;3.57;;;2.07;;
60032;SDS011;45905;50.570;10.428;2023-05-10T02:17:51;2.73;;;2.27;;
60032;SDS011;45905;50.570;10.428;2023-05-10T02:20:23;4.23;;;2.37;;
60032;SDS011;45905;50.570;10.428;2023-05-10T02:22:54;2.37;;;1.67;;
60032;SDS011;45905;50.570;10.428;2023-05-10T02:25:24;4.20;;;2.87;;
60032;SDS011;45905;50.570;10.428;2023-05-10T02:27:54;2.17;;;1.67;;
60032;SDS011;45905;50.570;10.428;2023-05-10T02:30:23;3.73;;;2.20;;
60032;SDS011;45905;50.570;10.428;2023-05-10T02:32:51;5.30;;;3.03;;
60032;SDS011;45905;50.570;10.428;2023-05-10T02:35:19;11.03;;;2.73;;
60032;SDS011;45905;50.570;10.428;2023-05-10T02:37:49;2.60;;;2.03;;
60032;SDS011;45905;50.570;10.428;2023-05-10T02:40:17;4.50;;;2.70;;
60032;SDS011;45905;50.570;10.428;2023-05-10T02:42:49;4.77;;;2.63;;
60032;SDS011;45905;50.570;10.428;2023-05-10T02:45:21;3.40;;;2.30;;
60032;SDS011;45905;50.570;10.428;2023-05-10T02:47:54;5.70;;;2.60;;
60032;SDS011;45905;50.570;10.428;2023-05-10T02:50:23;3.60;;;2.53;;
60032;SDS011;45905;50.570;10.428;2023-05-10T02:52:56;2.77;;;2.30;;
60032;SDS011;45905;50.570;10.428;2023-05-10T02:55:35;3.47;;;2.80;;
60032;SDS011;45905;50.570;10.428;2023-05-10T02:58:06;7.70;;;2.80;;
60032;SDS011;45905;50.570;10.428;2023-05-10T03:00:34;5.83;;;2.20;;
60032;SDS011;45905;50.570;10.428;2023-05-10T03:03:02;7.90;;;2.93;;
60032;SDS011;45905;50.570;10.428;2023-05-10T03:05:30;7.20;;;3.17;;
60032;SDS011;45905;50.570;10.428;2023-05-10T03:07:59;2.47;;;2.10;;
60032;SDS011;45905;50.570;10.428;2023-05-10T03:10:30;2.90;;;2.07;;
60032;SDS011;45905;50.570;10.428;2023-05-10T03:16:08;3.10;;;2.10;;
60032;SDS011;45905;50.570;10.428;2023-05-10T03:18:48;3.50;;;3.13;;
60032;SDS011;45905;50.570;10.428;2023-05-10T03:21:28;4.20;;;2.87;;
60032;SDS011;45905;50.570;10.428;2023-05-10T03:23:59;2.53;;;2.20;;
60032;SDS011;45905;50.570;10.428;2023-05-10T03:26:34;9.73;;;2.47;;
60032;SDS011;45905;50.570;10.428;2023-05-10T03:29:08;5.17;;;3.10;;
60032;SDS011;45905;50.570;10.428;2023-05-10T03:31:40;6.53;;;3.20;;
60032;SDS011;45905;50.570;10.428;2023-05-10T03:34:08;9.67;;;3.43;;
60032;SDS011;45905;50.570;10.428;2023-05-10T03:36:35;3.37;;;2.60;;
60032;SDS011;45905;50.570;10.428;2023-05-10T03:39:02;6.10;;;3.03;;
60032;SDS011;45905;50.570;10.428;2023-05-10T03:41:29;5.70;;;3.03;;
60032;SDS011;45905;50.570;10.428;2023-05-10T03:43:57;4.87;;;3.23;;
60032;SDS011;45905;50.570;10.428;2023-05-10T03:46:24;7.47;;;2.93;;
60032;SDS011;45905;50.570;10.428;2023-05-10T03:48:51;4.80;;;2.63;;
60032;SDS011;45905;50.570;10.428;2023-05-10T03:51:19;3.90;;;2.87;;
60032;SDS011;45905;50.570;10.428;2023-05-10T03:53:47;3.80;;;3.20;;
60032;SDS011;45905;50.570;10.428;2023-05-10T03:56:14;5.33;;;3.00;;
60032;SDS011;45905;50.570;10.428;2023-05-10T03:58:41;7.10;;;2.80;;
60032;SDS011;45905;50.570;10.428;2023-05-10T04:01:08;4.50;;;3.07;;
60032;SDS011;45905;50.570;10.428;2023-05-10T04:03:36;3.93;;;2.33;;
60032;SDS011;45905;50.570;10.428;2023-05-10T04:06:04;5.43;;;3.40;;
60032;SDS011;45905;50.570;10.428;2023-05-10T04:08:32;5.20;;;3.23;;
60032;SDS011;45905;50.570;10.428;2023-05-10T04:11:06;2.53;;;1.30;;
60032;SDS011;45905;50.570;10.428;2023-05-10T04:13:35;5.37;;;2.90;;
60032;SDS011;45905;50.570;10.428;2023-05-10T04:16:02;2.77;;;1.97;;
60032;SDS011;45905;50.570;10.428;2023-05-10T04:18:30;3.37;;;2.03;;
60032;SDS011;45905;50.570;10.428;2023-05-10T04:20:58;2.80;;;1.70;;
60032;SDS011;45905;50.570;10.428;2023-05-10T04:23:26;4.93;;;2.03;;
60032;SDS011;45905;50.570;10.428;2023-05-10T04:26:00;5.57;;;2.10;;
60032;SDS011;45905;50.570;10.428;2023-05-10T04:28:28;3.37;;;2.07;;
60032;SDS011;45905;50.570;10.428;2023-05-10T04:31:05;3.90;;;2.57;;
60032;SDS011;45905;50.570;10.428;2023-05-10T04:33:35;2.50;;;1.73;;
60032;SDS011;45905;50.570;10.428;2023-05-10T04:36:03;3.43;;;2.60;;
60032;SDS011;45905;50.570;10.428;2023-05-10T04:38:30;2.27;;;1.70;;
60032;SDS011;45905;50.570;10.428;2023-05-10T04:41:07;2.23;;;1.63;;
60032;SDS011;45905;50.570;10.428;2023-05-10T04:43:36;4.20;;;2.43;;
60032;SDS011;45905;50.570;10.428;2023-05-10T04:46:05;4.40;;;3.00;;
60032;SDS011;45905;50.570;10.428;2023-05-10T04:48:33;5.77;;;1.87;;
60032;SDS011;45905;50.570;10.428;2023-05-10T04:51:01;2.77;;;1.87;;
60032;SDS011;45905;50.570;10.428;2023-05-10T04:53:29;1.50;;;1.20;;
60032;SDS011;45905;50.570;10.428;2023-05-10T04:55:57;2.47;;;1.53;;
60032;SDS011;45905;50.570;10.428;2023-05-10T04:58:24;2.90;;;1.67;;
60032;SDS011;45905;50.570;10.428;2023-05-10T05:00:52;3.03;;;1.87;;
60032;SDS011;45905;50.570;10.428;2023-05-10T05:03:19;2.17;;;1.80;;
60032;SDS011;45905;50.570;10.428;2023-05-10T05:05:47;2.03;;;1.30;;
60032;SDS011;45905;50.570;10.428;2023-05-10T05:08:14;1.10;;;0.70;;
60032;SDS011;45905;50.570;10.428;2023-05-10T05:10:42;1.40;;;0.90;;
60032;SDS011;45905;50.570;10.428;2023-05-10T05:13:10;3.27;;;1.00;;
60032;SDS011;45905;50.570;10.428;2023-05-10T05:15:39;1.47;;;0.90;;
60032;SDS011;45905;50.570;10.428;2023-05-10T05:18:07;1.00;;;0.70;;
60032;SDS011;45905;50.570;10.428;2023-05-10T05:20:34;1.70;;;1.00;;
60032;SDS011;45905;50.570;10.428;2023-05-10T05:23:01;1.67;;;0.90;;
60032;SDS011;45905;50.570;10.428;2023-05-10T05:25:28;2.03;;;0.90;;
60032;SDS011;45905;50.570;10.428;2023-05-10T05:27:56;13.03;;;2.27;;
60032;SDS011;45905;50.570;10.428;2023-05-10T05:30:23;2.57;;;0.77;;
60032;SDS011;45905;50.570;10.428;2023-05-10T05:32:50;2.20;;;0.87;;
60032;SDS011;45905;50.570;10.428;2023-05-10T05:35:17;1.00;;;0.57;;
60032;SDS011;45905;50.570;10.428;2023-05-10T05:37:45;1.10;;;0.80;;
60032;SDS011;45905;50.570;10.428;2023-05-10T05:40:12;1.23;;;0.73;;
60032;SDS011;45905;50.570;10.428;2023-05-10T05:42:40;2.47;;;0.90;;
60032;SDS011;45905;50.570;10.428;2023-05-10T05:45:08;1.10;;;0.60;;
60032;SDS011;45905;50.570;10.428;2023-05-10T05:47:39;1.00;;;0.60;;
60032;SDS011;45905;50.570;10.428;2023-05-10T05:50:07;1.17;;;0.73;;
60032;SDS011;45905;50.570;10.428;2023-05-10T05:52:34;1.03;;;0.70;;
60032;SDS011;45905;50.570;10.428;2023-05-10T05:55:02;1.00;;;0.80;;
60032;SDS011;45905;50.570;10.428;2023-05-10T05:57:30;1.07;;;0.63;;
60032;SDS011;45905;50.570;10.428;2023-05-10T05:59:57;2.00;;;1.30;;
60032;SDS011;45905;50.570;10.428;2023-05-10T06:02:24;1.07;;;0.80;;
60032;SDS011;45905;50.570;10.428;2023-05-10T06:04:51;1.30;;;0.80;;
60032;SDS011;45905;50.570;10.428;2023-05-10T06:07:19;1.37;;;0.83;;
60032;SDS011;45905;50.570;10.428;2023-05-10T06:09:46;1.73;;;0.87;;
60032;SDS011;45905;50.570;10.428;2023-05-10T06:12:13;0.87;;;0.57;;
60032;SDS011;45905;50.570;10.428;2023-05-10T06:14:40;1.47;;;1.00;;
60032;SDS011;45905;50.570;10.428;2023-05-10T06:17:08;1.13;;;0.77;;
60032;SDS011;45905;50.570;10.428;2023-05-10T06:19:35;0.80;;;0.50;;
60032;SDS011;45905;50.570;10.428;2023-05-10T06:22:03;1.47;;;0.70;;
60032;SDS011;45905;50.570;10.428;2023-05-10T06:24:30;1.30;;;0.50;;
60032;SDS011;45905;50.570;10.428;2023-05-10T06:26:57;1.60;;;0.67;;
60032;SDS011;45905;50.570;10.428;2023-05-10T06:29:26;2.90;;;1.20;;
60032;SDS011;45905;50.570;10.428;2023-05-10T06:31:53;1.27;;;0.53;;
60032;SDS011;45905;50.570;10.428;2023-05-10T06:34:20;1.23;;;0.80;;
60032;SDS011;45905;50.570;10.428;2023-05-10T06:36:48;13.23;;;1.27;;
60032;SDS011;45905;50.570;10.428;2023-05-10T06:39:15;0.80;;;0.50;;
60032;SDS011;45905;50.570;10.428;2023-05-10T06:41:42;1.00;;;0.70;;
60032;SDS011;45905;50.570;10.428;2023-05-10T06:44:10;0.80;;;0.57;;
60032;SDS011;45905;50.570;10.428;2023-05-10T06:46:37;0.80;;;0.43;;
60032;SDS011;45905;50.570;10.428;2023-05-10T06:49:04;0.90;;;0.60;;
60032;SDS011;45905;50.570;10.428;2023-05-10T06:51:32;1.57;;;0.60;;
60032;SDS011;45905;50.570;10.428;2023-05-10T06:54:00;1.17;;;0.60;;
60032;SDS011;45905;50.570;10.428;2023-05-10T06:56:28;1.00;;;0.50;;
60032;SDS011;45905;50.570;10.428;2023-05-10T06:58:55;0.70;;;0.40;;
60032;SDS011;45905;50.570;10.428;2023-05-10T07:01:22;0.83;;;0.57;;
60032;SDS011;45905;50.570;10.428;2023-05-10T07:03:50;0.90;;;0.53;;
60032;SDS011;45905;50.570;10.428;2023-05-10T07:06:17;0.90;;;0.50;;
60032;SDS011;45905;50.570;10.428;2023-05-10T07:08:58;0.80;;;0.50;;
60032;SDS011;45905;50.570;10.428;2023-05-10T07:11:26;1.00;;;0.53;;
60032;SDS011;45905;50.570;10.428;2023-05-10T07:13:54;0.97;;;0.50;;
60032;SDS011;45905;50.570;10.428;2023-05-10T07:16:21;0.80;;;0.40;;
60032;SDS011;45905;50.570;10.428;2023-05-10T07:18:49;0.80;;;0.40;;
60032;SDS011;45905;50.570;10.428;2023-05-10T07:21:16;0.70;;;0.40;;
60032;SDS011;45905;50.570;10.428;2023-05-10T07:23:44;1.07;;;0.40;;
60032;SDS011;45905;50.570;10.428;2023-05-10T07:26:11;1.00;;;0.90;;
60032;SDS011;45905;50.570;10.428;2023-05-10T07:28:38;1.30;;;0.50;;
60032;SDS011;45905;50.570;10.428;2023-05-10T07:31:06;1.00;;;0.43;;
60032;SDS011;45905;50.570;10.428;2023-05-10T07:33:33;0.90;;;0.40;;
60032;SDS011;45905;50.570;10.428;2023-05-10T07:36:00;0.80;;;0.40;;
60032;SDS011;45905;50.570;10.428;2023-05-10T07:38:27;0.70;;;0.40;;
60032;SDS011;45905;50.570;10.428;2023-05-10T07:40:54;0.80;;;0.50;;
60032;SDS011;45905;50.570;10.428;2023-05-10T07:43:22;0.77;;;0.40;;
60032;SDS011;45905;50.570;10.428;2023-05-10T07:45:49;1.00;;;0.60;;
60032;SDS011;45905;50.570;10.428;2023-05-10T07:48:19;0.80;;;0.50;;
60032;SDS011;45905;50.570;10.428;2023-05-10T07:50:46;0.80;;;0.50;;
60032;SDS011;45905;50.570;10.428;2023-05-10T07:53:13;0.80;;;0.40;;
60032;SDS011;45905;50.570;10.428;2023-05-10T07:55:40;1.83;;;0.50;;
60032;SDS011;45905;50.570;10.428;2023-05-10T07:58:08;2.00;;;0.80;;
60032;SDS011;45905;50.570;10.428;2023-05-10T08:00:35;1.03;;;0.50;;
60032;SDS011;45905;50.570;10.428;2023-05-10T08:03:05;0.80;;;0.50;;
60032;SDS011;45905;50.570;10.428;2023-05-10T08:05:32;1.37;;;0.63;;
60032;SDS011;45905;50.570;10.428;2023-05-10T08:08:01;0.70;;;0.40;;
60032;SDS011;45905;50.570;10.428;2023-05-10T08:10:28;0.97;;;0.70;;
60032;SDS011;45905;50.570;10.428;2023-05-10T08:12:56;1.00;;;0.80;;
60032;SDS011;45905;50.570;10.428;2023-05-10T08:15:24;0.83;;;0.50;;
60032;SDS011;45905;50.570;10.428;2023-05-10T08:17:52;1.60;;;1.03;;
60032;SDS011;45905;50.570;10.428;2023-05-10T08:20:19;7.57;;;0.60;;
60032;SDS011;45905;50.570;10.428;2023-05-10T08:22:47;0.80;;;0.60;;
60032;SDS011;45905;50.570;10.428;2023-05-10T08:25:17;1.00;;;0.70;;
60032;SDS011;45905;50.570;10.428;2023-05-10T08:27:44;0.90;;;0.63;;
60032;SDS011;45905;50.570;10.428;2023-05-10T08:30:11;0.90;;;0.73;;
60032;SDS011;45905;50.570;10.428;2023-05-10T08:32:39;1.10;;;0.50;;
60032;SDS011;45905;50.570;10.428;2023-05-10T08:35:06;1.10;;;0.70;;
60032;SDS011;45905;50.570;10.428;2023-05-10T08:37:33;1.10;;;0.70;;
60032;SDS011;45905;50.570;10.428;2023-05-10T08:40:01;1.00;;;0.50;;
60032;SDS011;45905;50.570;10.428;2023-05-10T08:42:30;0.90;;;0.50;;
60032;SDS011;45905;50.570;10.428;2023-05-10T08:45:01;0.87;;;0.70;;
60032;SDS011;45905;50.570;10.428;2023-05-10T08:47:30;0.90;;;0.60;;
60032;SDS011;45905;50.570;10.428;2023-05-10T08:49:58;1.30;;;0.73;;
60032;SDS011;45905;50.570;10.428;2023-05-10T08:52:26;0.90;;;0.60;;
60032;SDS011;45905;50.570;10.428;2023-05-10T08:54:56;1.00;;;0.60;;
60032;SDS011;45905;50.570;10.428;2023-05-10T08:57:23;1.00;;;0.77;;
60032;SDS011;45905;50.570;10.428;2023-05-10T08:59:51;0.80;;;0.57;;
60032;SDS011;45905;50.570;10.428;2023-05-10T09:02:19;0.80;;;0.50;;
60032;SDS011;45905;50.570;10.428;2023-05-10T09:04:47;0.97;;;0.73;;
60032;SDS011;45905;50.570;10.428;2023-05-10T09:07:15;1.73;;;0.80;;
60032;SDS011;45905;50.570;10.428;2023-05-10T09:09:43;1.53;;;0.80;;
60032;SDS011;45905;50.570;10.428;2023-05-10T09:12:12;0.90;;;0.50;;
60032;SDS011;45905;50.570;10.428;2023-05-10T09:14:42;1.40;;;0.57;;
60032;SDS011;45905;50.570;10.428;2023-05-10T09:17:11;0.90;;;0.50;;
60032;SDS011;45905;50.570;10.428;2023-05-10T09:19:39;0.97;;;0.67;;
60032;SDS011;45905;50.570;10.428;2023-05-10T09:22:06;2.60;;;1.10;;
60032;SDS011;45905;50.570;10.428;2023-05-10T09:24:33;2.00;;;1.10;;
60032;SDS011;45905;50.570;10.428;2023-05-10T09:27:01;2.07;;;1.00;;
60032;SDS011;45905;50.570;10.428;2023-05-10T09:29:38;0.90;;;0.80;;
60032;SDS011;45905;50.570;10.428;2023-05-10T09:32:09;1.97;;;1.00;;
60032;SDS011;45905;50.570;10.428;2023-05-10T09:34:38;1.10;;;0.80;;
60032;SDS011;45905;50.570;10.428;2023-05-10T09:37:06;4.60;;;0.70;;
60032;SDS011;45905;50.570;10.428;2023-05-10T09:39:35;1.00;;;0.60;;
60032;SDS011;45905;50.570;10.428;2023-05-10T09:42:05;1.37;;;1.00;;
60032;SDS011;45905;50.570;10.428;2023-05-10T09:44:35;1.40;;;0.67;;
60032;SDS011;45905;50.570;10.428;2023-05-10T09:47:04;1.67;;;1.10;;
60032;SDS011;45905;50.570;10.428;2023-05-10T09:49:31;1.30;;;0.70;;
60032;SDS011;45905;50.570;10.428;2023-05-10T09:52:06;1.70;;;0.90;;
60032;SDS011;45905;50.570;10.428;2023-05-10T09:54:34;1.37;;;0.70;;
60032;SDS011;45905;50.570;10.428;2023-05-10T09:57:02;1.30;;;0.80;;
60032;SDS011;45905;50.570;10.428;2023-05-10T09:59:29;1.13;;;0.73;;
60032;SDS011;45905;50.570;10.428;2023-05-10T10:02:01;1.20;;;0.90;;
60032;SDS011;45905;50.570;10.428;2023-05-10T10:04:29;1.00;;;0.67;;
60032;SDS011;45905;50.570;10.428;2023-05-10T10:07:03;1.50;;;0.80;;
60032;SDS011;45905;50.570;10.428;2023-05-10T10:09:31;0.80;;;0.50;;
60032;SDS011;45905;50.570;10.428;2023-05-10T10:12:00;1.07;;;0.77;;
60032;SDS011;45905;50.570;10.428;2023-05-10T10:14:29;1.50;;;1.17;;
60032;SDS011;45905;50.570;10.428;2023-05-10T10:16:56;2.47;;;0.90;;
60032;SDS011;45905;50.570;10.428;2023-05-10T10:19:34;1.10;;;0.63;;
60032;SDS011;45905;50.570;10.428;2023-05-10T10:22:03;1.17;;;0.73;;
60032;SDS011;45905;50.570;10.428;2023-05-10T10:24:31;1.13;;;0.67;;
60032;SDS011;45905;50.570;10.428;2023-05-10T10:27:04;1.03;;;0.60;;
60032;SDS011;45905;50.570;10.428;2023-05-10T10:36:02;1.47;;;1.03;;
60032;SDS011;45905;50.570;10.428;2023-05-10T10:38:37;0.90;;;0.70;;
60032;SDS011;45905;50.570;10.428;2023-05-10T10:57:54;1.50;;;0.80;;
60032;SDS011;45905;50.570;10.428;2023-05-10T11:00:31;1.53;;;1.07;;
60032;SDS011;45905;50.570;10.428;2023-05-10T11:03:04;1.73;;;1.00;;
60032;SDS011;45905;50.570;10.428;2023-05-10T11:05:39;1.90;;;0.80;;
60032;SDS011;45905;50.570;10.428;2023-05-10T11:08:27;1.03;;;0.80;;
60032;SDS011;45905;50.570;10.428;2023-05-10T11:13:40;1.93;;;1.20;;
60032;SDS011;45905;50.570;10.428;2023-05-10T11:16:17;1.10;;;0.77;;
60032;SDS011;45905;50.570;10.428;2023-05-10T11:18:57;1.57;;;1.07;;
60032;SDS011;45905;50.570;10.428;2023-05-10T11:21:44;1.10;;;0.60;;
60032;SDS011;45905;50.570;10.428;2023-05-10T11:24:29;0.97;;;0.63;;
60032;SDS011;45905;50.570;10.428;2023-05-10T11:26:56;1.50;;;0.70;;
60032;SDS011;45905;50.570;10.428;2023-05-10T11:29:24;1.00;;;0.80;;
60032;SDS011;45905;50.570;10.428;2023-05-10T11:31:52;0.90;;;0.70;;
60032;SDS011;45905;50.570;10.428;2023-05-10T11:34:25;1.47;;;0.73;;
60032;SDS011;45905;50.570;10.428;2023-05-10T11:37:00;1.57;;;0.90;;
60032;SDS011;45905;50.570;10.428;2023-05-10T11:39:28;1.10;;;0.87;;
60032;SDS011;45905;50.570;10.428;2023-05-10T11:41:57;1.33;;;0.63;;
60032;SDS011;45905;50.570;10.428;2023-05-10T11:44:29;1.40;;;0.97;;
60032;SDS011;45905;50.570;10.428;2023-05-10T11:46:58;1.47;;;0.90;;
60032;SDS011;45905;50.570;10.428;2023-05-10T11:49:27;1.53;;;0.50;;
60032;SDS011;45905;50.570;10.428;2023-05-10T11:52:03;1.20;;;0.80;;
60032;SDS011;45905;50.570;10.428;2023-05-10T11:54:34;0.97;;;0.77;;
60032;SDS011;45905;50.570;10.428;2023-05-10T11:57:02;0.90;;;0.70;;
60032;SDS011;45905;50.570;10.428;2023-05-10T11:59:30;4.20;;;0.60;;
60032;SDS011;45905;50.570;10.428;2023-05-10T12:01:57;1.03;;;0.70;;
60032;SDS011;45905;50.570;10.428;2023-05-10T12:04:25;1.00;;;0.90;;
60032;SDS011;45905;50.570;10.428;2023-05-10T12:06:54;0.83;;;0.53;;
60032;SDS011;45905;50.570;10.428;2023-05-10T12:09:21;1.73;;;0.90;;
60032;SDS011;45905;50.570;10.428;2023-05-10T12:11:55;1.47;;;0.50;;
60032;SDS011;45905;50.570;10.428;2023-05-10T12:14:23;1.10;;;0.90;;
60032;SDS011;45905;50.570;10.428;2023-05-10T12:16:50;0.90;;;0.80;;
60032;SDS011;45905;50.570;10.428;2023-05-10T12:19:19;0.93;;;0.50;;
60032;SDS011;45905;50.570;10.428;2023-05-10T12:21:49;0.97;;;0.73;;
60032;SDS011;45905;50.570;10.428;2023-05-10T12:24:16;1.00;;;0.70;;
60032;SDS011;45905;50.570;10.428;2023-05-10T12:26:47;0.90;;;0.53;;
60032;SDS011;45905;50.570;10.428;2023-05-10T12:29:15;1.93;;;1.30;;
60032;SDS011;45905;50.570;10.428;2023-05-10T12:31:58;1.37;;;0.80;;
60032;SDS011;45905;50.570;10.428;2023-05-10T12:34:26;2.40;;;0.80;;
60032;SDS011;45905;50.570;10.428;2023-05-10T12:37:00;1.53;;;0.77;;
60032;SDS011;45905;50.570;10.428;2023-05-10T12:39:39;1.10;;;0.60;;
60032;SDS011;45905;50.570;10.428;2023-05-10T12:42:08;0.97;;;0.80;;
60032;SDS011;45905;50.570;10.428;2023-05-10T12:44:36;1.40;;;0.80;;
60032;SDS011;45905;50.570;10.428;2023-05-10T12:47:03;1.40;;;0.80;;
60032;SDS011;45905;50.570;10.428;2023-05-10T12:49:30;0.83;;;0.50;;
60032;SDS011;45905;50.570;10.428;2023-05-10T12:51:58;0.90;;;0.70;;
60032;SDS011;45905;50.570;10.428;2023-05-10T12:54:25;0.90;;;0.70;;
60032;SDS011;45905;50.570;10.428;2023-05-10T12:56:52;2.03;;;1.03;;
60032;SDS011;45905;50.570;10.428;2023-05-10T12:59:19;1.10;;;1.00;;
60032;SDS011;45905;50.570;10.428;2023-05-10T13:01:46;1.67;;;1.07;;
60032;SDS011;45905;50.570;10.428;2023-05-10T13:04:14;1.23;;;1.03;;
60032;SDS011;45905;50.570;10.428;2023-05-10T13:06:41;0.90;;;0.70;;
60032;SDS011;45905;50.570;10.428;2023-05-10T13:09:08;2.63;;;0.60;;
60032;SDS011;45905;50.570;10.428;2023-05-10T13:11:35;1.43;;;0.80;;
60032;SDS011;45905;50.570;10.428;2023-05-10T13:14:02;4.63;;;0.90;;
60032;SDS011;45905;50.570;10.428;2023-05-10T13:16:30;1.10;;;0.60;;
60032;SDS011;45905;50.570;10.428;2023-05-10T13:18:58;1.00;;;0.53;;
60032;SDS011;45905;50.570;10.428;2023-05-10T13:21:25;0.90;;;0.67;;
60032;SDS011;45905;50.570;10.428;2023-05-10T13:23:53;1.20;;;0.70;;
60032;SDS011;45905;50.570;10.428;2023-05-10T13:26:20;0.80;;;0.40;;
60032;SDS011;45905;50.570;10.428;2023-05-10T13:28:47;1.20;;;0.53;;
60032;SDS011;45905;50.570;10.428;2023-05-10T13:31:15;0.80;;;0.40;;
60032;SDS011;45905;50.570;10.428;2023-05-10T13:33:43;0.90;;;0.60;;
60032;SDS011;45905;50.570;10.428;2023-05-10T13:36:10;0.90;;;0.57;;
60032;SDS011;45905;50.570;10.428;2023-05-10T13:38:37;1.10;;;1.00;;
60032;SDS011;45905;50.570;10.428;2023-05-10T13:41:04;1.07;;;0.93;;
60032;SDS011;45905;50.570;10.428;2023-05-10T13:43:31;1.73;;;0.80;;
60032;SDS011;45905;50.570;10.428;2023-05-10T13:45:58;0.83;;;0.47;;
60032;SDS011;45905;50.570;10.428;2023-05-10T13:48:26;0.80;;;0.50;;
60032;SDS011;45905;50.570;10.428;2023-05-10T13:50:53;0.80;;;0.50;;
60032;SDS011;45905;50.570;10.428;2023-05-10T13:53:21;0.90;;;0.50;;
60032;SDS011;45905;50.570;10.428;2023-05-10T13:55:48;0.80;;;0.47;;
60032;SDS011;45905;50.570;10.428;2023-05-10T13:58:15;1.40;;;0.73;;
60032;SDS011;45905;50.570;10.428;2023-05-10T14:00:43;0.80;;;0.50;;
60032;SDS011;45905;50.570;10.428;2023-05-10T14:03:10;1.00;;;0.70;;
60032;SDS011;45905;50.570;10.428;2023-05-10T14:05:38;0.90;;;0.60;;
60032;SDS011;45905;50.570;10.428;2023-05-10T14:08:05;1.43;;;0.60;;
60032;SDS011;45905;50.570;10.428;2023-05-10T14:10:32;1.57;;;0.57;;
60032;SDS011;45905;50.570;10.428;2023-05-10T14:12:59;0.90;;;0.60;;
60032;SDS011;45905;50.570;10.428;2023-05-10T14:15:27;2.10;;;0.70;;
60032;SDS011;45905;50.570;10.428;2023-05-10T14:17:54;1.40;;;0.70;;
60032;SDS011;45905;50.570;10.428;2023-05-10T14:20:21;0.90;;;0.50;;
60032;SDS011;45905;50.570;10.428;2023-05-10T14:22:48;4.13;;;1.30;;
60032;SDS011;45905;50.570;10.428;2023-05-10T14:25:16;2.57;;;1.20;;
60032;SDS011;45905;50.570;10.428;2023-05-10T14:27:44;1.10;;;0.50;;
60032;SDS011;45905;50.570;10.428;2023-05-10T14:30:11;5.00;;;0.83;;
60032;SDS011;45905;50.570;10.428;2023-05-10T14:32:39;1.40;;;0.60;;
60032;SDS011;45905;50.570;10.428;2023-05-10T14:35:06;1.80;;;0.80;;
60032;SDS011;45905;50.570;10.428;2023-05-10T14:37:36;1.17;;;1.00;;
60032;SDS011;45905;50.570;10.428;2023-05-10T14:40:03;4.50;;;0.70;;
60032;SDS011;45905;50.570;10.428;2023-05-10T14:42:32;0.90;;;0.63;;
60032;SDS011;45905;50.570;10.428;2023-05-10T14:44:59;1.20;;;0.60;;
60032;SDS011;45905;50.570;10.428;2023-05-10T14:47:27;1.20;;;0.90;;
60032;SDS011;45905;50.570;10.428;2023-05-10T14:49:54;1.73;;;0.77;;
60032;SDS011;45905;50.570;10.428;2023-05-10T14:52:21;1.43;;;0.70;;
60032;SDS011;45905;50.570;10.428;2023-05-10T14:54:48;1.57;;;0.93;;
60032;SDS011;45905;50.570;10.428;2023-05-10T14:57:15;0.80;;;0.40;;
60032;SDS011;45905;50.570;10.428;2023-05-10T14:59:42;3.97;;;0.80;;
60032;SDS011;45905;50.570;10.428;2023-05-10T15:02:10;2.03;;;0.87;;
60032;SDS011;45905;50.570;10.428;2023-05-10T15:04:38;0.97;;;0.67;;
60032;SDS011;45905;50.570;10.428;2023-05-10T15:07:06;0.90;;;0.60;;
60032;SDS011;45905;50.570;10.428;2023-05-10T15:09:33;0.90;;;0.70;;
60032;SDS011;45905;50.570;10.428;2023-05-10T15:12:00;1.17;;;0.80;;
60032;SDS011;45905;50.570;10.428;2023-05-10T15:14:27;1.83;;;1.07;;
60032;SDS011;45905;50.570;10.428;2023-05-10T15:16:56;2.10;;;0.60;;
60032;SDS011;45905;50.570;10.428;2023-05-10T15:19:23;1.00;;;0.70;;
60032;SDS011;45905;50.570;10.428;2023-05-10T15:21:51;1.63;;;1.00;;
60032;SDS011;45905;50.570;10.428;2023-05-10T15:24:18;1.27;;;0.70;;